createdAt,value
2023-04-26T03:45:52.523Z,704.40
2023-04-26T03:48:19.233Z,698.72
2023-04-26T03:50:46.100Z,699.78
2023-04-26T03:53:13.169Z,693.67
2023-04-26T03:55:39.831Z,697.97
2023-04-26T03:58:08.075Z,696.88
2023-04-26T04:00:37.951Z,696.90
2023-04-26T04:03:07.323Z,700.30
2023-04-26T04:05:34.467Z,698.72
2023-04-26T04:08:01.755Z,689.92
2023-04-26T04:10:29.030Z,693.03
2023-04-26T04:12:55.856Z,693.08
2023-04-26T04:15:23.117Z,686.05
2023-04-26T04:17:49.824Z,693.83
2023-04-26T04:20:16.558Z,687.30
2023-04-26T04:22:43.304Z,689.13
2023-04-26T04:25:10.553Z,682.97
2023-04-26T04:27:37.904Z,689.35
2023-04-26T04:30:07.492Z,687.22
2023-04-26T04:32:34.282Z,685.38
2023-04-26T04:35:01.856Z,686.85
2023-04-26T04:37:33.570Z,683.35
2023-04-26T04:40:00.802Z,685.03
2023-04-26T04:42:28.238Z,685.35
2023-04-26T04:44:55.126Z,685.67
2023-04-26T04:47:21.753Z,684.08
2023-04-26T04:49:48.408Z,686.00
2023-04-26T04:52:16.885Z,685.15
2023-04-26T04:54:45.429Z,694.33
2023-04-26T04:57:13.748Z,685.45
2023-04-26T04:59:40.424Z,697.38
2023-04-26T05:02:07.126Z,686.67
2023-04-26T05:04:34.467Z,690.53
2023-04-26T05:07:02.053Z,691.38
2023-04-26T05:09:28.720Z,688.50
2023-04-26T05:11:55.411Z,688.30
2023-04-26T05:14:22.013Z,684.77
2023-04-26T05:16:48.836Z,687.45
2023-04-26T05:19:15.583Z,686.55
2023-04-26T05:21:42.219Z,688.78
2023-04-26T05:24:08.828Z,692.15
2023-04-26T05:26:35.918Z,691.42
2023-04-26T05:29:02.641Z,690.95
2023-04-26T05:31:29.355Z,687.83
2023-04-26T05:33:56.064Z,696.50
2023-04-26T05:36:22.823Z,702.38
2023-04-26T05:38:49.400Z,700.60
2023-04-26T05:41:16.061Z,703.50
2023-04-26T05:43:42.675Z,713.92
2023-04-26T05:46:09.422Z,718.03
2023-04-26T05:48:36.504Z,714.38
2023-04-26T05:51:03.196Z,715.05
2023-04-26T05:53:29.852Z,720.85
2023-04-26T05:55:56.641Z,724.30
2023-04-26T05:58:23.237Z,724.53
2023-04-26T06:00:49.838Z,736.45
2023-04-26T06:03:16.772Z,738.88
2023-04-26T06:05:43.987Z,734.72
2023-04-26T06:08:11.201Z,739.97
2023-04-26T06:10:38.000Z,746.90
2023-04-26T06:13:05.129Z,741.55
2023-04-26T06:15:32.118Z,747.33
2023-04-26T06:17:59.016Z,773.05
2023-04-26T06:20:26.169Z,772.10
2023-04-26T06:22:52.760Z,772.55
2023-04-26T06:25:19.480Z,777.63
2023-04-26T06:27:46.149Z,779.50
2023-04-26T06:30:13.245Z,776.03
2023-04-26T06:32:41.420Z,777.35
2023-04-26T06:35:08.582Z,781.47
2023-04-26T06:37:35.554Z,782.50
2023-04-26T06:40:02.249Z,796.05
2023-04-26T06:42:29.047Z,801.15
2023-04-26T06:44:56.024Z,807.33
2023-04-26T06:47:22.737Z,808.30
2023-04-26T06:49:49.390Z,817.55
2023-04-26T06:52:16.060Z,818.35
2023-04-26T06:54:53.664Z,831.13
2023-04-26T06:57:23.462Z,832.58
2023-04-26T06:59:50.078Z,838.23
2023-04-26T07:02:16.744Z,834.40
2023-04-26T07:04:44.028Z,835.92
2023-04-26T07:07:13.175Z,845.88
2023-04-26T07:09:41.093Z,843.08
2023-04-26T07:12:07.960Z,847.65
2023-04-26T07:14:37.174Z,863.38
2023-04-26T07:17:05.232Z,877.00
2023-04-26T07:19:31.909Z,876.92
2023-04-26T07:21:58.553Z,872.85
2023-04-26T07:24:25.800Z,873.20
2023-04-26T07:26:52.572Z,879.00
2023-04-26T07:29:19.380Z,884.10
2023-04-26T07:31:46.324Z,890.67
2023-04-26T07:34:13.115Z,895.63
2023-04-26T07:36:39.882Z,895.97
2023-04-26T07:39:06.804Z,899.80
2023-04-26T07:41:33.523Z,898.50
2023-04-26T07:44:00.579Z,905.70
2023-04-26T07:46:27.257Z,917.07
2023-04-26T07:48:53.956Z,904.53
2023-04-26T07:51:20.989Z,908.70
2023-04-26T07:53:47.686Z,911.95
2023-04-26T07:56:15.254Z,920.35
2023-04-26T07:58:41.913Z,915.65
2023-04-26T08:01:09.737Z,914.17
2023-04-26T08:03:36.943Z,903.93
2023-04-26T08:06:04.198Z,904.15
2023-04-26T08:08:32.216Z,908.30
2023-04-26T08:10:58.940Z,915.17
2023-04-26T08:13:28.540Z,921.63
2023-04-26T08:15:56.180Z,918.95
2023-04-26T08:18:22.855Z,919.80
2023-04-26T08:20:49.485Z,932.05
2023-04-26T08:23:16.133Z,954.40
2023-04-26T08:25:43.035Z,968.47
2023-04-26T08:28:09.707Z,978.08
2023-04-26T08:30:36.440Z,981.38
2023-04-26T08:33:03.838Z,987.75
2023-04-26T08:35:30.571Z,990.75
2023-04-26T08:37:57.261Z,991.80
2023-04-26T08:40:25.072Z,997.83
2023-04-26T08:42:53.809Z,997.50
2023-04-26T08:45:21.379Z,995.25
2023-04-26T08:47:50.139Z,1006.95
2023-04-26T08:50:20.784Z,988.80
2023-04-26T08:52:51.291Z,983.03
2023-04-26T08:55:22.145Z,980.97
2023-04-26T08:57:50.149Z,977.70
2023-04-26T09:00:18.234Z,974.38
2023-04-26T09:02:51.167Z,956.30
2023-04-26T09:05:24.135Z,960.08
2023-04-26T09:07:52.997Z,961.60
2023-04-26T09:10:21.572Z,936.53
2023-04-26T09:12:55.432Z,929.10
2023-04-26T09:15:23.470Z,925.22
2023-04-26T09:17:51.763Z,926.30
2023-04-26T09:20:22.197Z,930.78
2023-04-26T09:22:53.569Z,921.90
2023-04-26T09:25:31.031Z,938.70
2023-04-26T09:27:58.873Z,974.40
2023-04-26T09:30:26.687Z,990.88
2023-04-26T09:33:04.841Z,1031.55
2023-04-26T09:35:33.516Z,1050.22
2023-04-26T09:38:10.528Z,1065.93
2023-04-26T09:40:42.080Z,1091.65
2023-04-26T09:43:12.956Z,1083.43
2023-04-26T09:45:49.887Z,1075.60
2023-04-26T09:48:30.330Z,1065.63
2023-04-26T09:50:58.214Z,1060.27
2023-04-26T09:53:38.278Z,1056.75
2023-04-26T09:56:15.679Z,1040.13
2023-04-26T09:58:48.692Z,1018.90
2023-04-26T10:01:17.731Z,1024.93
2023-04-26T10:03:44.992Z,1014.25
2023-04-26T10:06:15.803Z,1014.03
2023-04-26T10:08:43.364Z,1009.67
2023-04-26T10:11:13.855Z,1003.15
2023-04-26T10:13:41.832Z,998.03
2023-04-26T10:16:10.085Z,997.53
2023-04-26T10:18:37.722Z,1017.93
2023-04-26T10:21:22.477Z,1041.55
2023-04-26T10:23:49.744Z,1047.10
2023-04-26T10:26:53.246Z,1025.72
2023-04-26T10:29:23.843Z,1038.93
2023-04-26T10:32:02.577Z,1049.72
2023-04-26T10:34:33.560Z,1054.97
2023-04-26T10:37:20.494Z,1069.57
2023-04-26T10:39:47.168Z,1073.78
2023-04-26T10:42:25.449Z,1077.83
2023-04-26T10:45:28.871Z,1097.20
2023-04-26T10:48:17.366Z,1103.23
2023-04-26T10:51:02.508Z,1097.15
2023-04-26T10:53:53.796Z,1097.20
2023-04-26T10:56:23.876Z,1078.65
2023-04-26T11:01:41.792Z,1071.82
2023-04-26T11:04:11.463Z,1072.67
2023-04-26T11:06:54.903Z,1068.97
2023-04-26T11:09:48.865Z,1068.47
2023-04-26T11:12:16.490Z,1055.72
2023-04-26T11:14:45.497Z,1052.22
2023-04-26T11:17:13.097Z,1045.32
2023-04-26T11:19:41.889Z,1047.40
2023-04-26T11:22:08.916Z,1045.45
2023-04-26T11:24:39.141Z,1048.83
2023-04-26T11:27:10.152Z,1039.45
2023-04-26T11:29:37.369Z,1041.28
2023-04-26T11:32:04.704Z,1045.15
2023-04-26T11:34:34.304Z,1032.63
2023-04-26T11:37:05.648Z,1029.63
2023-04-26T11:39:36.828Z,1034.80
2023-04-26T11:42:11.396Z,1018.95
2023-04-26T11:44:39.747Z,1015.97
2023-04-26T11:47:07.910Z,1006.13
2023-04-26T11:49:37.142Z,1009.17
2023-04-26T11:52:05.087Z,1005.07
2023-04-26T11:54:33.655Z,1010.35
2023-04-26T11:57:00.941Z,1000.63
2023-04-26T11:59:30.844Z,1002.03
2023-04-26T12:01:58.281Z,1014.05
2023-04-26T12:04:31.451Z,1023.60
2023-04-26T12:06:58.628Z,1027.38
2023-04-26T12:09:29.835Z,1023.58
2023-04-26T12:12:06.170Z,1016.40
2023-04-26T12:14:37.971Z,1015.55
2023-04-26T12:17:06.276Z,1012.95
2023-04-26T12:19:37.251Z,1007.35
2023-04-26T12:22:04.853Z,997.53
2023-04-26T12:24:38.513Z,1001.75
2023-04-26T12:27:06.874Z,1005.50
2023-04-26T12:29:34.326Z,1008.67
2023-04-26T12:32:02.045Z,1011.42
2023-04-26T12:34:29.052Z,1015.95
2023-04-26T12:36:55.897Z,1024.07
2023-04-26T12:39:22.671Z,1026.43
2023-04-26T12:41:49.616Z,1012.85
2023-04-26T12:44:16.457Z,1004.95
2023-04-26T12:46:43.424Z,1006.53
2023-04-26T12:49:10.137Z,1003.67
2023-04-26T12:51:36.798Z,1001.38
2023-04-26T12:54:03.528Z,1003.58
2023-04-26T12:56:30.488Z,998.63
2023-04-26T12:58:59.022Z,1004.65
2023-04-26T13:01:26.424Z,1002.53
2023-04-26T13:03:54.150Z,1000.58
2023-04-26T13:06:20.874Z,1010.13
2023-04-26T13:08:47.564Z,1016.13
2023-04-26T13:11:14.635Z,1009.47
2023-04-26T13:13:44.126Z,1005.08
2023-04-26T13:16:12.451Z,1004.72
2023-04-26T13:18:39.839Z,1004.95
2023-04-26T13:21:06.578Z,1004.90
2023-04-26T13:23:33.313Z,1002.47
2023-04-26T13:25:59.939Z,1022.40
2023-04-26T13:28:26.636Z,1032.15
2023-04-26T13:30:53.385Z,1034.97
2023-04-26T13:33:21.289Z,1033.72
2023-04-26T13:35:48.499Z,1035.28
2023-04-26T13:38:16.066Z,1038.82
2023-04-26T13:40:43.741Z,1034.78
2023-04-26T13:43:10.522Z,1027.90
2023-04-26T13:45:37.182Z,1010.25
2023-04-26T13:48:04.430Z,1011.78
2023-04-26T13:50:31.284Z,1006.47
2023-04-26T13:52:58.021Z,1023.88
2023-04-26T13:55:25.622Z,1024.10
2023-04-26T13:57:52.305Z,1035.93
2023-04-26T14:00:19.324Z,1039.50
2023-04-26T14:02:46.215Z,1042.72
2023-04-26T14:05:13.262Z,1042.40
2023-04-26T14:07:41.321Z,1042.28
2023-04-26T14:10:08.362Z,1050.32
2023-04-26T14:12:35.056Z,1055.22
2023-04-26T14:15:06.080Z,1054.60
2023-04-26T14:17:33.371Z,1054.50
2023-04-26T14:20:00.134Z,1050.10
2023-04-26T14:22:27.473Z,1046.13
2023-04-26T14:24:54.188Z,1044.35
2023-04-26T14:27:20.836Z,1049.70
2023-04-26T14:29:47.527Z,1049.10
2023-04-26T14:32:14.273Z,1052.38
2023-04-26T14:34:41.048Z,1049.45
2023-04-26T14:37:08.029Z,1049.07
2023-04-26T14:39:34.945Z,1049.80
2023-04-26T14:42:01.753Z,1047.70
2023-04-26T14:44:28.711Z,1051.35
2023-04-26T14:46:55.609Z,1051.07
2023-04-26T14:49:22.374Z,1055.35
2023-04-26T14:51:50.239Z,1064.00
2023-04-26T14:54:18.471Z,1064.00
2023-04-26T14:56:45.313Z,1063.57
2023-04-26T14:59:11.944Z,1067.00
2023-04-26T15:01:38.731Z,1070.97
2023-04-26T15:04:05.539Z,1071.40
2023-04-26T15:06:33.420Z,1074.53
2023-04-26T15:09:00.206Z,1068.37
2023-04-26T15:11:26.919Z,1072.13
2023-04-26T15:13:53.548Z,1072.00
2023-04-26T15:16:20.287Z,1068.57
2023-04-26T15:18:47.014Z,1063.85
2023-04-26T15:21:18.173Z,1062.32
2023-04-26T15:23:45.141Z,1066.50
2023-04-26T15:26:11.829Z,1067.32
2023-04-26T15:28:38.611Z,1063.70
2023-04-26T15:31:08.017Z,1062.75
2023-04-26T15:33:34.764Z,1062.32
2023-04-26T15:36:01.445Z,1063.25
2023-04-26T15:38:28.160Z,1057.20
2023-04-26T15:40:54.909Z,1047.15
2023-04-26T15:43:21.924Z,1045.78
2023-04-26T15:45:49.568Z,1045.68
2023-04-26T15:48:16.474Z,1044.15
2023-04-26T15:50:43.114Z,1045.60
2023-04-26T15:53:09.926Z,1044.43
2023-04-26T15:55:36.878Z,1057.10
2023-04-26T15:58:06.448Z,1046.60
2023-04-26T16:00:33.934Z,1037.75
2023-04-26T16:03:02.074Z,1045.38
2023-04-26T16:05:28.858Z,1044.75
2023-04-26T16:07:55.712Z,1035.43
2023-04-26T16:10:22.627Z,1038.82
2023-04-26T16:12:49.670Z,1039.63
2023-04-26T16:15:16.423Z,1033.20
2023-04-26T16:17:43.482Z,1035.72
2023-04-26T16:20:10.675Z,1036.40
2023-04-26T16:22:37.442Z,1037.13
2023-04-26T16:25:06.784Z,1047.57
2023-04-26T16:27:33.827Z,1041.22
2023-04-26T16:30:00.838Z,1040.78
2023-04-26T16:32:27.728Z,1040.50
2023-04-26T16:34:54.437Z,1038.28
2023-04-26T16:37:21.214Z,1046.55
2023-04-26T16:39:47.839Z,1043.70
2023-04-26T16:42:14.420Z,1046.30
2023-04-26T16:44:41.290Z,1043.90
2023-04-26T16:47:07.922Z,1045.68
2023-04-26T16:49:34.640Z,1045.95
2023-04-26T16:52:01.754Z,1041.75
2023-04-26T16:54:29.110Z,1047.15
2023-04-26T16:56:56.143Z,1040.43
2023-04-26T16:59:23.155Z,1036.97
2023-04-26T17:01:50.514Z,1015.75
2023-04-26T17:04:17.332Z,1004.50
2023-04-26T17:06:45.440Z,1015.90
2023-04-26T17:09:12.463Z,1001.65
2023-04-26T17:11:43.406Z,1007.50
2023-04-26T17:14:10.271Z,1002.35
2023-04-26T17:16:37.060Z,1002.15
2023-04-26T17:19:04.149Z,997.85
2023-04-26T17:21:31.829Z,989.37
2023-04-26T17:23:58.587Z,990.40
2023-04-26T17:26:25.344Z,990.37
2023-04-26T17:28:52.828Z,996.92
2023-04-26T17:31:19.588Z,985.78
2023-04-26T17:33:46.310Z,983.13
2023-04-26T17:36:12.959Z,980.90
2023-04-26T17:38:39.724Z,987.78
2023-04-26T17:41:06.336Z,986.47
2023-04-26T17:43:33.035Z,983.47
2023-04-26T17:45:59.786Z,983.22
2023-04-26T17:48:26.439Z,981.20
2023-04-26T17:50:53.426Z,981.20
2023-04-26T17:53:20.379Z,981.50
2023-04-26T17:55:47.252Z,983.03
2023-04-26T17:58:13.845Z,981.17
2023-04-26T18:00:40.494Z,983.40
2023-04-26T18:03:07.949Z,976.75
2023-04-26T18:05:34.703Z,977.30
2023-04-26T18:08:01.326Z,976.88
2023-04-26T18:10:28.014Z,972.85
2023-04-26T18:12:54.663Z,975.95
2023-04-26T18:15:21.369Z,981.72
2023-04-26T18:17:48.046Z,974.42
2023-04-26T18:20:14.783Z,970.55
2023-04-26T18:22:41.659Z,973.33
2023-04-26T18:25:08.858Z,965.03
2023-04-26T18:27:35.537Z,968.78
2023-04-26T18:30:02.214Z,972.80
2023-04-26T18:32:29.075Z,968.50
2023-04-26T18:34:55.882Z,970.30
2023-04-26T18:37:22.516Z,970.72
2023-04-26T18:39:49.250Z,971.70
2023-04-26T18:42:15.963Z,966.97
2023-04-26T18:44:42.602Z,965.03
2023-04-26T18:47:09.280Z,953.58
2023-04-26T18:49:35.970Z,961.45
2023-04-26T18:52:02.658Z,956.95
2023-04-26T18:54:30.968Z,960.20
2023-04-26T18:56:57.585Z,949.47
2023-04-26T18:59:24.255Z,956.13
2023-04-26T19:01:50.912Z,950.63
2023-04-26T19:04:17.766Z,955.92
2023-04-26T19:06:44.480Z,945.92
2023-04-26T19:09:11.749Z,952.90
2023-04-26T19:11:38.818Z,955.38
2023-04-26T19:14:06.107Z,954.38
2023-04-26T19:16:32.770Z,957.57
2023-04-26T19:18:59.572Z,962.30
2023-04-26T19:21:26.688Z,959.80
2023-04-26T19:23:53.366Z,958.85
2023-04-26T19:26:20.013Z,961.30
2023-04-26T19:28:46.699Z,952.13
2023-04-26T19:31:13.585Z,951.28
2023-04-26T19:33:40.549Z,964.78
2023-04-26T19:36:08.683Z,959.13
2023-04-26T19:38:35.344Z,957.67
2023-04-26T19:41:02.296Z,954.67
2023-04-26T19:43:29.391Z,952.25
2023-04-26T19:45:56.167Z,954.15
2023-04-26T19:48:22.842Z,961.03
2023-04-26T19:50:49.550Z,952.70
2023-04-26T19:53:16.184Z,954.13
2023-04-26T19:55:42.836Z,943.03
2023-04-26T19:58:12.540Z,937.20
2023-04-26T20:00:40.245Z,939.03
2023-04-26T20:03:07.087Z,941.00
2023-04-26T20:05:34.151Z,942.28
2023-04-26T20:08:01.793Z,945.88
2023-04-26T20:10:33.562Z,945.10
2023-04-26T20:13:00.789Z,931.78
2023-04-26T20:15:27.887Z,926.00
2023-04-26T20:17:54.872Z,918.92
2023-04-26T20:20:21.710Z,914.72
2023-04-26T20:22:48.388Z,916.60
2023-04-26T20:25:15.137Z,920.20
2023-04-26T20:27:41.980Z,918.10
2023-04-26T20:30:09.185Z,917.05
2023-04-26T20:32:35.918Z,917.20
2023-04-26T20:35:02.708Z,910.47
2023-04-26T20:37:29.320Z,917.53
2023-04-26T20:39:56.470Z,905.97
2023-04-26T20:42:23.879Z,920.70
2023-04-26T20:44:50.687Z,918.67
2023-04-26T20:47:17.683Z,914.65
2023-04-26T20:49:44.449Z,916.58
2023-04-26T20:52:11.547Z,921.08
2023-04-26T20:54:38.163Z,915.13
2023-04-26T20:57:04.845Z,913.95
2023-04-26T20:59:31.591Z,907.83
2023-04-26T21:01:58.352Z,909.65
2023-04-26T21:04:25.376Z,907.03
2023-04-26T21:06:52.190Z,910.88
2023-04-26T21:09:18.839Z,913.95
2023-04-26T21:11:45.472Z,913.20
2023-04-26T21:14:13.735Z,908.28
2023-04-26T21:16:40.647Z,910.53
2023-04-26T21:19:08.100Z,905.63
2023-04-26T21:21:35.077Z,914.05
2023-04-26T21:24:02.912Z,916.13
2023-04-26T21:26:29.917Z,914.80
2023-04-26T21:28:56.554Z,914.22
2023-04-26T21:31:23.391Z,917.08
2023-04-26T21:33:50.671Z,913.35
2023-04-26T21:36:17.370Z,919.38
2023-04-26T21:38:44.110Z,906.05
2023-04-26T21:41:10.842Z,922.38
2023-04-26T21:43:37.431Z,914.22
2023-04-26T21:46:04.140Z,915.50
2023-04-26T21:48:30.814Z,913.15
2023-04-26T21:50:57.442Z,914.55
2023-04-26T21:53:24.125Z,912.53
2023-04-26T21:55:54.806Z,907.87
2023-04-26T21:58:22.427Z,906.83
2023-04-26T22:00:49.774Z,901.10
2023-04-26T22:03:17.326Z,893.75
2023-04-26T22:05:44.323Z,903.23
2023-04-26T22:08:11.166Z,902.00
2023-04-26T22:10:37.923Z,903.45
2023-04-26T22:13:05.292Z,904.72
2023-04-26T22:15:32.148Z,902.45
2023-04-26T22:17:59.075Z,903.83
2023-04-26T22:20:26.501Z,895.90
2023-04-26T22:22:53.911Z,900.00
2023-04-26T22:25:21.020Z,895.35
2023-04-26T22:27:48.054Z,901.10
2023-04-26T22:30:24.631Z,910.90
2023-04-26T22:32:54.671Z,901.30
2023-04-26T22:35:22.226Z,899.70
2023-04-26T22:37:48.994Z,898.85
2023-04-26T22:40:16.171Z,900.33
2023-04-26T22:42:43.537Z,898.38
2023-04-26T22:45:11.744Z,901.27
2023-04-26T22:47:39.117Z,894.95
2023-04-26T22:50:07.394Z,893.63
2023-04-26T22:52:34.813Z,894.08
2023-04-26T22:55:01.646Z,892.30
2023-04-26T22:57:29.677Z,886.90
2023-04-26T22:59:56.664Z,901.22
